sensor_id;sensor_type;location;lat;lon;timestamp;temperature;humidity
70839;DHT22;58464;52.298;4.852;2022-11-25T00:00:09;9.38;90.88
70839;DHT22;58464;52.298;4.852;2022-11-25T00:02:34;9.33;91.17
70839;DHT22;58464;52.298;4.852;2022-11-25T00:05:00;9.30;91.43
70839;DHT22;58464;52.298;4.852;2022-11-25T00:07:25;9.27;91.45
70839;DHT22;58464;52.298;4.852;2022-11-25T00:09:50;9.35;91.69
70839;DHT22;58464;52.298;4.852;2022-11-25T00:12:16;9.27;91.70
70839;DHT22;58464;52.298;4.852;2022-11-25T00:14:41;9.23;92.00
70839;DHT22;58464;52.298;4.852;2022-11-25T00:17:07;9.23;92.03
70839;DHT22;58464;52.298;4.852;2022-11-25T00:19:32;9.19;92.40
70839;DHT22;58464;52.298;4.852;2022-11-25T00:21:57;9.13;92.60
70839;DHT22;58464;52.298;4.852;2022-11-25T00:24:23;9.14;92.81
70839;DHT22;58464;52.298;4.852;2022-11-25T00:26:48;9.13;92.85
70839;DHT22;58464;52.298;4.852;2022-11-25T00:29:16;9.17;92.96
70839;DHT22;58464;52.298;4.852;2022-11-25T00:31:42;9.20;93.19
70839;DHT22;58464;52.298;4.852;2022-11-25T00:34:11;9.16;93.07
70839;DHT22;58464;52.298;4.852;2022-11-25T00:36:37;9.19;93.22
70839;DHT22;58464;52.298;4.852;2022-11-25T00:39:09;9.16;93.02
70839;DHT22;58464;52.298;4.852;2022-11-25T00:41:34;9.17;93.36
70839;DHT22;58464;52.298;4.852;2022-11-25T00:44:19;9.14;93.49
70839;DHT22;58464;52.298;4.852;2022-11-25T00:49:32;9.19;93.90
70839;DHT22;58464;52.298;4.852;2022-11-25T00:51:58;9.20;93.85
70839;DHT22;58464;52.298;4.852;2022-11-25T00:54:23;9.26;93.77
70839;DHT22;58464;52.298;4.852;2022-11-25T00:56:49;9.26;93.91
70839;DHT22;58464;52.298;4.852;2022-11-25T00:59:15;9.27;93.99
70839;DHT22;58464;52.298;4.852;2022-11-25T01:01:40;9.20;93.89
70839;DHT22;58464;52.298;4.852;2022-11-25T01:04:06;9.22;93.93
70839;DHT22;58464;52.298;4.852;2022-11-25T01:06:32;9.27;94.22
70839;DHT22;58464;52.298;4.852;2022-11-25T01:08:57;9.26;94.32
70839;DHT22;58464;52.298;4.852;2022-11-25T01:11:23;9.28;94.19
70839;DHT22;58464;52.298;4.852;2022-11-25T01:13:50;9.28;94.18
70839;DHT22;58464;52.298;4.852;2022-11-25T01:16:19;9.23;94.02
70839;DHT22;58464;52.298;4.852;2022-11-25T01:18:45;9.28;93.83
70839;DHT22;58464;52.298;4.852;2022-11-25T01:21:12;9.33;93.85
70839;DHT22;58464;52.298;4.852;2022-11-25T01:23:39;9.27;94.00
70839;DHT22;58464;52.298;4.852;2022-11-25T01:26:07;9.22;94.04
70839;DHT22;58464;52.298;4.852;2022-11-25T01:28:33;9.20;94.25
70839;DHT22;58464;52.298;4.852;2022-11-25T01:31:11;9.19;94.33
70839;DHT22;58464;52.298;4.852;2022-11-25T01:33:38;9.20;94.52
70839;DHT22;58464;52.298;4.852;2022-11-25T01:36:09;9.22;94.46
70839;DHT22;58464;52.298;4.852;2022-11-25T01:38:36;9.27;94.77
70839;DHT22;58464;52.298;4.852;2022-11-25T01:41:02;9.31;94.77
70839;DHT22;58464;52.298;4.852;2022-11-25T01:43:28;9.28;94.50
70839;DHT22;58464;52.298;4.852;2022-11-25T01:48:38;9.33;94.34
70839;DHT22;58464;52.298;4.852;2022-11-25T01:51:04;9.35;94.22
70839;DHT22;58464;52.298;4.852;2022-11-25T01:53:30;9.35;94.28
70839;DHT22;58464;52.298;4.852;2022-11-25T01:55:59;9.45;94.32
70839;DHT22;58464;52.298;4.852;2022-11-25T01:58:35;9.54;94.26
70839;DHT22;58464;52.298;4.852;2022-11-25T02:01:02;9.52;93.94
70839;DHT22;58464;52.298;4.852;2022-11-25T02:03:35;9.50;93.76
70839;DHT22;58464;52.298;4.852;2022-11-25T02:06:10;9.58;94.08
70839;DHT22;58464;52.298;4.852;2022-11-25T02:08:37;9.58;94.05
70839;DHT22;58464;52.298;4.852;2022-11-25T02:11:03;9.57;93.69
70839;DHT22;58464;52.298;4.852;2022-11-25T02:13:29;9.54;93.81
70839;DHT22;58464;52.298;4.852;2022-11-25T02:15:55;9.61;93.64
70839;DHT22;58464;52.298;4.852;2022-11-25T02:18:20;9.68;93.76
70839;DHT22;58464;52.298;4.852;2022-11-25T02:20:46;9.55;93.65
70839;DHT22;58464;52.298;4.852;2022-11-25T02:25:40;9.48;93.97
70839;DHT22;58464;52.298;4.852;2022-11-25T02:28:08;9.45;93.90
70839;DHT22;58464;52.298;4.852;2022-11-25T02:30:35;9.48;93.86
70839;DHT22;58464;52.298;4.852;2022-11-25T02:33:01;9.50;93.93
70839;DHT22;58464;52.298;4.852;2022-11-25T02:35:38;9.50;94.01
70839;DHT22;58464;52.298;4.852;2022-11-25T02:38:13;9.55;93.99
70839;DHT22;58464;52.298;4.852;2022-11-25T02:43:32;9.58;93.76
70839;DHT22;58464;52.298;4.852;2022-11-25T02:46:04;9.58;93.85
70839;DHT22;58464;52.298;4.852;2022-11-25T02:48:36;9.55;93.70
70839;DHT22;58464;52.298;4.852;2022-11-25T02:51:02;9.64;93.86
70839;DHT22;58464;52.298;4.852;2022-11-25T02:53:28;9.65;93.65
70839;DHT22;58464;52.298;4.852;2022-11-25T02:55:53;9.65;93.72
70839;DHT22;58464;52.298;4.852;2022-11-25T02:58:19;9.59;93.77
70839;DHT22;58464;52.298;4.852;2022-11-25T03:00:44;9.61;93.58
70839;DHT22;58464;52.298;4.852;2022-11-25T03:03:10;9.59;93.76
70839;DHT22;58464;52.298;4.852;2022-11-25T03:05:36;9.58;93.74
70839;DHT22;58464;52.298;4.852;2022-11-25T03:08:02;9.59;93.91
70839;DHT22;58464;52.298;4.852;2022-11-25T03:10:28;9.55;93.85
70839;DHT22;58464;52.298;4.852;2022-11-25T03:12:53;9.57;94.02
70839;DHT22;58464;52.298;4.852;2022-11-25T03:15:19;9.61;94.11
70839;DHT22;58464;52.298;4.852;2022-11-25T03:17:44;9.59;93.96
70839;DHT22;58464;52.298;4.852;2022-11-25T03:20:10;9.68;94.06
70839;DHT22;58464;52.298;4.852;2022-11-25T03:22:37;9.64;93.65
70839;DHT22;58464;52.298;4.852;2022-11-25T03:25:03;9.70;94.01
70839;DHT22;58464;52.298;4.852;2022-11-25T03:27:28;9.58;93.82
70839;DHT22;58464;52.298;4.852;2022-11-25T03:29:55;9.59;94.13
70839;DHT22;58464;52.298;4.852;2022-11-25T03:32:20;9.57;94.07
70839;DHT22;58464;52.298;4.852;2022-11-25T03:34:46;9.58;94.29
70839;DHT22;58464;52.298;4.852;2022-11-25T03:37:11;9.54;94.09
70839;DHT22;58464;52.298;4.852;2022-11-25T03:39:37;9.55;94.03
70839;DHT22;58464;52.298;4.852;2022-11-25T03:42:02;9.52;93.97
70839;DHT22;58464;52.298;4.852;2022-11-25T03:44:28;9.51;94.18
70839;DHT22;58464;52.298;4.852;2022-11-25T03:46:53;9.45;94.17
70839;DHT22;58464;52.298;4.852;2022-11-25T03:49:18;9.38;94.29
70839;DHT22;58464;52.298;4.852;2022-11-25T03:51:46;9.43;94.35
70839;DHT22;58464;52.298;4.852;2022-11-25T03:54:11;9.44;94.38
70839;DHT22;58464;52.298;4.852;2022-11-25T03:56:38;9.41;94.17
70839;DHT22;58464;52.298;4.852;2022-11-25T03:59:03;9.51;94.33
70839;DHT22;58464;52.298;4.852;2022-11-25T04:01:29;9.47;93.99
70839;DHT22;58464;52.298;4.852;2022-11-25T04:03:54;9.40;93.79
70839;DHT22;58464;52.298;4.852;2022-11-25T04:06:21;9.41;93.84
70839;DHT22;58464;52.298;4.852;2022-11-25T04:08:50;9.33;93.84
70839;DHT22;58464;52.298;4.852;2022-11-25T04:11:16;9.37;94.00
70839;DHT22;58464;52.298;4.852;2022-11-25T04:13:42;9.34;93.72
70839;DHT22;58464;52.298;4.852;2022-11-25T04:16:22;9.28;93.77
70839;DHT22;58464;52.298;4.852;2022-11-25T04:18:49;9.34;93.97
70839;DHT22;58464;52.298;4.852;2022-11-25T04:21:14;9.27;93.87
70839;DHT22;58464;52.298;4.852;2022-11-25T04:23:40;9.20;93.93
70839;DHT22;58464;52.298;4.852;2022-11-25T04:26:05;9.16;93.92
70839;DHT22;58464;52.298;4.852;2022-11-25T04:28:30;9.16;93.72
70839;DHT22;58464;52.298;4.852;2022-11-25T04:30:56;9.12;93.82
70839;DHT22;58464;52.298;4.852;2022-11-25T04:33:21;9.07;93.91
70839;DHT22;58464;52.298;4.852;2022-11-25T04:35:46;9.04;93.82
70839;DHT22;58464;52.298;4.852;2022-11-25T04:38:12;9.04;93.48
70839;DHT22;58464;52.298;4.852;2022-11-25T04:40:37;8.94;93.66
70839;DHT22;58464;52.298;4.852;2022-11-25T04:43:03;9.10;93.84
70839;DHT22;58464;52.298;4.852;2022-11-25T04:45:29;8.97;93.31
70839;DHT22;58464;52.298;4.852;2022-11-25T04:47:55;8.97;93.41
70839;DHT22;58464;52.298;4.852;2022-11-25T04:50:22;8.89;93.53
70839;DHT22;58464;52.298;4.852;2022-11-25T04:52:48;8.92;93.44
70839;DHT22;58464;52.298;4.852;2022-11-25T04:55:13;8.83;93.27
70839;DHT22;58464;52.298;4.852;2022-11-25T04:57:39;8.85;93.44
70839;DHT22;58464;52.298;4.852;2022-11-25T05:00:06;8.87;93.46
70839;DHT22;58464;52.298;4.852;2022-11-25T05:02:31;8.79;93.20
70839;DHT22;58464;52.298;4.852;2022-11-25T05:04:57;8.73;93.42
70839;DHT22;58464;52.298;4.852;2022-11-25T05:07:26;8.73;93.58
70839;DHT22;58464;52.298;4.852;2022-11-25T05:09:51;8.76;93.44
70839;DHT22;58464;52.298;4.852;2022-11-25T05:12:20;8.76;93.45
70839;DHT22;58464;52.298;4.852;2022-11-25T05:14:45;8.76;92.95
70839;DHT22;58464;52.298;4.852;2022-11-25T05:17:16;8.76;93.42
70839;DHT22;58464;52.298;4.852;2022-11-25T05:19:42;8.72;92.99
70839;DHT22;58464;52.298;4.852;2022-11-25T05:22:12;8.71;92.82
70839;DHT22;58464;52.298;4.852;2022-11-25T05:24:37;8.75;92.76
70839;DHT22;58464;52.298;4.852;2022-11-25T05:27:03;8.65;92.76
70839;DHT22;58464;52.298;4.852;2022-11-25T05:29:28;8.62;92.88
70839;DHT22;58464;52.298;4.852;2022-11-25T05:31:54;8.63;92.77
70839;DHT22;58464;52.298;4.852;2022-11-25T05:34:19;8.52;92.78
70839;DHT22;58464;52.298;4.852;2022-11-25T05:36:44;8.62;92.93
70839;DHT22;58464;52.298;4.852;2022-11-25T05:39:10;8.59;92.71
70839;DHT22;58464;52.298;4.852;2022-11-25T05:41:35;8.61;92.79
70839;DHT22;58464;52.298;4.852;2022-11-25T05:44:01;8.61;92.58
70839;DHT22;58464;52.298;4.852;2022-11-25T05:46:26;8.48;92.54
70839;DHT22;58464;52.298;4.852;2022-11-25T05:48:53;8.55;92.65
70839;DHT22;58464;52.298;4.852;2022-11-25T05:51:18;8.49;92.71
70839;DHT22;58464;52.298;4.852;2022-11-25T05:53:44;8.56;92.83
70839;DHT22;58464;52.298;4.852;2022-11-25T05:56:09;8.52;92.56
70839;DHT22;58464;52.298;4.852;2022-11-25T05:58:35;8.59;92.60
70839;DHT22;58464;52.298;4.852;2022-11-25T06:01:05;8.61;92.53
70839;DHT22;58464;52.298;4.852;2022-11-25T06:03:32;8.65;92.95
70839;DHT22;58464;52.298;4.852;2022-11-25T06:05:58;8.61;92.66
70839;DHT22;58464;52.298;4.852;2022-11-25T06:08:25;8.63;92.28
70839;DHT22;58464;52.298;4.852;2022-11-25T06:10:50;8.55;92.65
70839;DHT22;58464;52.298;4.852;2022-11-25T06:13:18;8.55;92.75
70839;DHT22;58464;52.298;4.852;2022-11-25T06:15:44;8.46;92.78
70839;DHT22;58464;52.298;4.852;2022-11-25T06:18:10;8.41;92.63
70839;DHT22;58464;52.298;4.852;2022-11-25T06:20:36;8.46;92.92
70839;DHT22;58464;52.298;4.852;2022-11-25T06:23:02;8.49;92.93
70839;DHT22;58464;52.298;4.852;2022-11-25T06:25:29;8.51;92.81
70839;DHT22;58464;52.298;4.852;2022-11-25T06:27:54;8.44;92.62
70839;DHT22;58464;52.298;4.852;2022-11-25T06:30:20;8.38;92.46
70839;DHT22;58464;52.298;4.852;2022-11-25T06:32:45;8.40;92.80
70839;DHT22;58464;52.298;4.852;2022-11-25T06:35:10;8.42;92.97
70839;DHT22;58464;52.298;4.852;2022-11-25T06:37:36;8.34;92.91
70839;DHT22;58464;52.298;4.852;2022-11-25T06:40:02;8.38;92.84
70839;DHT22;58464;52.298;4.852;2022-11-25T06:42:28;8.42;92.72
70839;DHT22;58464;52.298;4.852;2022-11-25T06:44:53;8.33;92.77
70839;DHT22;58464;52.298;4.852;2022-11-25T06:47:19;8.28;93.09
70839;DHT22;58464;52.298;4.852;2022-11-25T06:49:44;8.21;93.04
70839;DHT22;58464;52.298;4.852;2022-11-25T06:52:09;8.24;93.06
70839;DHT22;58464;52.298;4.852;2022-11-25T06:54:35;8.17;93.27
70839;DHT22;58464;52.298;4.852;2022-11-25T06:57:06;8.17;93.31
70839;DHT22;58464;52.298;4.852;2022-11-25T06:59:31;8.14;93.69
70839;DHT22;58464;52.298;4.852;2022-11-25T07:01:56;8.23;93.56
70839;DHT22;58464;52.298;4.852;2022-11-25T07:04:22;8.21;93.30
70839;DHT22;58464;52.298;4.852;2022-11-25T07:06:48;8.24;93.29
70839;DHT22;58464;52.298;4.852;2022-11-25T07:09:13;8.14;93.16
70839;DHT22;58464;52.298;4.852;2022-11-25T07:11:39;8.18;92.99
70839;DHT22;58464;52.298;4.852;2022-11-25T07:14:08;8.24;92.55
70839;DHT22;58464;52.298;4.852;2022-11-25T07:16:36;8.30;92.65
70839;DHT22;58464;52.298;4.852;2022-11-25T07:19:02;8.15;92.27
70839;DHT22;58464;52.298;4.852;2022-11-25T07:21:28;8.25;92.40
70839;DHT22;58464;52.298;4.852;2022-11-25T07:23:55;8.24;92.38
70839;DHT22;58464;52.298;4.852;2022-11-25T07:26:25;8.18;92.18
70839;DHT22;58464;52.298;4.852;2022-11-25T07:28:52;8.20;92.44
70839;DHT22;58464;52.298;4.852;2022-11-25T07:31:22;8.27;92.59
70839;DHT22;58464;52.298;4.852;2022-11-25T07:33:56;8.24;92.16
70839;DHT22;58464;52.298;4.852;2022-11-25T07:36:23;8.17;92.23
70839;DHT22;58464;52.298;4.852;2022-11-25T07:38:48;8.14;92.34
70839;DHT22;58464;52.298;4.852;2022-11-25T07:41:18;8.30;92.64
70839;DHT22;58464;52.298;4.852;2022-11-25T07:43:48;8.24;92.18
70839;DHT22;58464;52.298;4.852;2022-11-25T07:46:23;8.23;91.95
70839;DHT22;58464;52.298;4.852;2022-11-25T07:48:49;8.21;91.93
70839;DHT22;58464;52.298;4.852;2022-11-25T07:51:35;8.34;91.77
70839;DHT22;58464;52.298;4.852;2022-11-25T07:54:04;8.38;91.59
70839;DHT22;58464;52.298;4.852;2022-11-25T07:56:30;8.34;91.49
70839;DHT22;58464;52.298;4.852;2022-11-25T07:58:57;8.38;91.34
70839;DHT22;58464;52.298;4.852;2022-11-25T08:01:23;8.45;91.41
70839;DHT22;58464;52.298;4.852;2022-11-25T08:03:50;8.46;90.87
70839;DHT22;58464;52.298;4.852;2022-11-25T08:06:18;8.51;90.72
70839;DHT22;58464;52.298;4.852;2022-11-25T08:08:44;8.52;90.44
70839;DHT22;58464;52.298;4.852;2022-11-25T08:11:13;8.52;90.54
70839;DHT22;58464;52.298;4.852;2022-11-25T08:13:39;8.56;90.36
70839;DHT22;58464;52.298;4.852;2022-11-25T08:16:04;8.62;90.27
70839;DHT22;58464;52.298;4.852;2022-11-25T08:18:30;8.71;90.06
70839;DHT22;58464;52.298;4.852;2022-11-25T08:21:03;8.76;89.70
70839;DHT22;58464;52.298;4.852;2022-11-25T08:23:30;8.80;89.60
70839;DHT22;58464;52.298;4.852;2022-11-25T08:25:56;8.89;89.01
70839;DHT22;58464;52.298;4.852;2022-11-25T08:28:22;8.89;88.92
70839;DHT22;58464;52.298;4.852;2022-11-25T08:30:48;8.96;88.36
70839;DHT22;58464;52.298;4.852;2022-11-25T08:33:14;9.07;88.27
70839;DHT22;58464;52.298;4.852;2022-11-25T08:35:39;9.20;87.79
70839;DHT22;58464;52.298;4.852;2022-11-25T08:38:07;9.23;87.68
70839;DHT22;58464;52.298;4.852;2022-11-25T08:40:35;9.26;87.13
70839;DHT22;58464;52.298;4.852;2022-11-25T08:43:01;9.28;87.07
70839;DHT22;58464;52.298;4.852;2022-11-25T08:45:27;9.41;86.75
70839;DHT22;58464;52.298;4.852;2022-11-25T08:47:52;9.44;86.34
70839;DHT22;58464;52.298;4.852;2022-11-25T08:50:18;9.52;85.87
70839;DHT22;58464;52.298;4.852;2022-11-25T08:52:44;9.57;85.65
70839;DHT22;58464;52.298;4.852;2022-11-25T08:55:09;9.58;85.43
70839;DHT22;58464;52.298;4.852;2022-11-25T08:57:35;9.70;85.16
70839;DHT22;58464;52.298;4.852;2022-11-25T09:00:01;9.85;85.11
70839;DHT22;58464;52.298;4.852;2022-11-25T09:02:26;9.75;84.99
70839;DHT22;58464;52.298;4.852;2022-11-25T09:04:52;9.81;84.92
70839;DHT22;58464;52.298;4.852;2022-11-25T09:07:17;9.91;84.85
70839;DHT22;58464;52.298;4.852;2022-11-25T09:09:43;9.96;84.60
70839;DHT22;58464;52.298;4.852;2022-11-25T09:12:09;9.98;84.35
70839;DHT22;58464;52.298;4.852;2022-11-25T09:14:36;10.06;84.20
70839;DHT22;58464;52.298;4.852;2022-11-25T09:17:07;10.17;83.59
70839;DHT22;58464;52.298;4.852;2022-11-25T09:19:33;10.23;83.70
70839;DHT22;58464;52.298;4.852;2022-11-25T09:21:58;10.34;83.49
70839;DHT22;58464;52.298;4.852;2022-11-25T09:24:23;10.50;83.16
70839;DHT22;58464;52.298;4.852;2022-11-25T09:26:49;10.63;82.56
70839;DHT22;58464;52.298;4.852;2022-11-25T09:29:15;10.59;82.13
70839;DHT22;58464;52.298;4.852;2022-11-25T09:31:40;10.67;81.97
70839;DHT22;58464;52.298;4.852;2022-11-25T09:34:06;10.67;81.99
70839;DHT22;58464;52.298;4.852;2022-11-25T09:36:32;10.77;81.96
70839;DHT22;58464;52.298;4.852;2022-11-25T09:38:58;10.68;81.97
70839;DHT22;58464;52.298;4.852;2022-11-25T09:44:39;10.82;82.15
70839;DHT22;58464;52.298;4.852;2022-11-25T09:53:29;11.10;81.39
70839;DHT22;58464;52.298;4.852;2022-11-25T09:56:02;11.02;81.83
70839;DHT22;58464;52.298;4.852;2022-11-25T09:58:40;11.22;81.66
70839;DHT22;58464;52.298;4.852;2022-11-25T10:01:16;11.19;81.42
70839;DHT22;58464;52.298;4.852;2022-11-25T10:03:48;11.28;81.50
70839;DHT22;58464;52.298;4.852;2022-11-25T10:06:23;11.15;81.92
70839;DHT22;58464;52.298;4.852;2022-11-25T10:08:51;11.22;81.91
70839;DHT22;58464;52.298;4.852;2022-11-25T10:11:29;11.12;81.86
70839;DHT22;58464;52.298;4.852;2022-11-25T10:14:02;11.01;82.99
70839;DHT22;58464;52.298;4.852;2022-11-25T10:19:22;11.10;83.12
70839;DHT22;58464;52.298;4.852;2022-11-25T10:21:49;11.01;83.79
70839;DHT22;58464;52.298;4.852;2022-11-25T10:24:16;10.98;84.37
70839;DHT22;58464;52.298;4.852;2022-11-25T10:26:44;10.95;84.51
70839;DHT22;58464;52.298;4.852;2022-11-25T10:29:22;10.97;84.60
70839;DHT22;58464;52.298;4.852;2022-11-25T10:31:50;11.11;84.65
70839;DHT22;58464;52.298;4.852;2022-11-25T10:34:29;11.39;83.62
70839;DHT22;58464;52.298;4.852;2022-11-25T10:36:59;11.58;83.19
70839;DHT22;58464;52.298;4.852;2022-11-25T10:39:28;11.83;82.64
70839;DHT22;58464;52.298;4.852;2022-11-25T10:42:06;12.01;81.97
70839;DHT22;58464;52.298;4.852;2022-11-25T10:44:38;12.20;80.85
70839;DHT22;58464;52.298;4.852;2022-11-25T10:47:25;12.44;80.23
70839;DHT22;58464;52.298;4.852;2022-11-25T10:50:13;12.41;80.04
70839;DHT22;58464;52.298;4.852;2022-11-25T10:52:48;12.32;80.57
70839;DHT22;58464;52.298;4.852;2022-11-25T10:55:24;12.40;80.26
70839;DHT22;58464;52.298;4.852;2022-11-25T10:57:51;12.32;80.26
70839;DHT22;58464;52.298;4.852;2022-11-25T11:00:35;12.46;80.61
70839;DHT22;58464;52.298;4.852;2022-11-25T11:03:20;12.78;79.80
70839;DHT22;58464;52.298;4.852;2022-11-25T11:05:49;12.76;79.82
70839;DHT22;58464;52.298;4.852;2022-11-25T11:10:44;12.44;82.84
70839;DHT22;58464;52.298;4.852;2022-11-25T11:13:23;12.24;83.07
70839;DHT22;58464;52.298;4.852;2022-11-25T11:15:51;12.41;82.61
70839;DHT22;58464;52.298;4.852;2022-11-25T11:20:50;12.62;82.08
70839;DHT22;58464;52.298;4.852;2022-11-25T11:23:16;12.58;82.66
70839;DHT22;58464;52.298;4.852;2022-11-25T11:25:59;12.40;82.60
70839;DHT22;58464;52.298;4.852;2022-11-25T11:28:37;12.10;83.21
70839;DHT22;58464;52.298;4.852;2022-11-25T11:31:16;12.00;83.68
70839;DHT22;58464;52.298;4.852;2022-11-25T11:36:21;11.90;84.32
70839;DHT22;58464;52.298;4.852;2022-11-25T11:38:57;12.13;83.53
70839;DHT22;58464;52.298;4.852;2022-11-25T11:41:57;12.52;82.68
70839;DHT22;58464;52.298;4.852;2022-11-25T11:50:19;12.95;81.22
70839;DHT22;58464;52.298;4.852;2022-11-25T12:01:35;13.86;77.37
70839;DHT22;58464;52.298;4.852;2022-11-25T12:04:17;14.12;76.01
70839;DHT22;58464;52.298;4.852;2022-11-25T12:07:01;14.32;75.09
70839;DHT22;58464;52.298;4.852;2022-11-25T12:09:28;14.33;74.03
70839;DHT22;58464;52.298;4.852;2022-11-25T12:12:01;14.20;75.45
70839;DHT22;58464;52.298;4.852;2022-11-25T12:14:41;13.89;75.19
70839;DHT22;58464;52.298;4.852;2022-11-25T12:17:17;13.54;77.04
70839;DHT22;58464;52.298;4.852;2022-11-25T12:19:51;13.39;76.93
70839;DHT22;58464;52.298;4.852;2022-11-25T12:22:37;13.26;77.32
70839;DHT22;58464;52.298;4.852;2022-11-25T12:25:11;13.53;77.16
70839;DHT22;58464;52.298;4.852;2022-11-25T12:27:46;13.74;75.70
70839;DHT22;58464;52.298;4.852;2022-11-25T12:30:20;13.53;75.49
70839;DHT22;58464;52.298;4.852;2022-11-25T12:33:16;13.46;76.02
70839;DHT22;58464;52.298;4.852;2022-11-25T12:35:56;13.36;74.81
70839;DHT22;58464;52.298;4.852;2022-11-25T12:38:55;13.64;73.94
70839;DHT22;58464;52.298;4.852;2022-11-25T12:41:44;13.74;72.57
70839;DHT22;58464;52.298;4.852;2022-11-25T12:44:22;13.41;73.27
70839;DHT22;58464;52.298;4.852;2022-11-25T12:46:49;13.47;73.75
70839;DHT22;58464;52.298;4.852;2022-11-25T12:49:31;13.39;74.17
70839;DHT22;58464;52.298;4.852;2022-11-25T13:08:07;12.90;74.36
70839;DHT22;58464;52.298;4.852;2022-11-25T13:11:20;12.82;75.13
70839;DHT22;58464;52.298;4.852;2022-11-25T13:14:00;12.71;75.88
70839;DHT22;58464;52.298;4.852;2022-11-25T13:16:29;12.79;75.43
70839;DHT22;58464;52.298;4.852;2022-11-25T13:18:55;12.92;75.78
70839;DHT22;58464;52.298;4.852;2022-11-25T13:21:20;12.83;75.34
70839;DHT22;58464;52.298;4.852;2022-11-25T13:23:50;12.82;75.58
70839;DHT22;58464;52.298;4.852;2022-11-25T13:26:45;12.89;75.58
70839;DHT22;58464;52.298;4.852;2022-11-25T13:31:56;12.68;76.09
70839;DHT22;58464;52.298;4.852;2022-11-25T13:36:52;13.00;75.42
70839;DHT22;58464;52.298;4.852;2022-11-25T13:39:38;13.20;74.57
70839;DHT22;58464;52.298;4.852;2022-11-25T13:44:57;13.37;73.77
70839;DHT22;58464;52.298;4.852;2022-11-25T13:47:31;13.23;73.15
70839;DHT22;58464;52.298;4.852;2022-11-25T13:50:00;13.30;73.26
70839;DHT22;58464;52.298;4.852;2022-11-25T13:52:34;13.26;72.89
70839;DHT22;58464;52.298;4.852;2022-11-25T13:55:06;13.27;72.86
70839;DHT22;58464;52.298;4.852;2022-11-25T13:57:33;13.37;72.88
70839;DHT22;58464;52.298;4.852;2022-11-25T14:00:47;13.41;73.24
70839;DHT22;58464;52.298;4.852;2022-11-25T14:02:46;13.30;73.71
70839;DHT22;58464;52.298;4.852;2022-11-25T14:10:25;13.04;74.12
70839;DHT22;58464;52.298;4.852;2022-11-25T14:15:29;12.86;74.14
70839;DHT22;58464;52.298;4.852;2022-11-25T14:26:27;12.82;74.96
70839;DHT22;58464;52.298;4.852;2022-11-25T14:28:57;12.80;75.20
70839;DHT22;58464;52.298;4.852;2022-11-25T14:31:43;12.76;75.19
70839;DHT22;58464;52.298;4.852;2022-11-25T14:34:33;12.79;75.40
70839;DHT22;58464;52.298;4.852;2022-11-25T14:37:10;12.71;75.75
70839;DHT22;58464;52.298;4.852;2022-11-25T14:39:51;12.66;75.56
70839;DHT22;58464;52.298;4.852;2022-11-25T14:42:18;12.71;75.97
70839;DHT22;58464;52.298;4.852;2022-11-25T14:44:47;12.61;76.49
70839;DHT22;58464;52.298;4.852;2022-11-25T14:47:13;12.56;76.51
70839;DHT22;58464;52.298;4.852;2022-11-25T14:49:47;12.58;76.47
70839;DHT22;58464;52.298;4.852;2022-11-25T14:52:22;12.55;76.77
70839;DHT22;58464;52.298;4.852;2022-11-25T14:54:49;12.53;76.72
70839;DHT22;58464;52.298;4.852;2022-11-25T14:57:20;12.49;77.02
70839;DHT22;58464;52.298;4.852;2022-11-25T14:59:47;12.32;76.78
70839;DHT22;58464;52.298;4.852;2022-11-25T15:02:29;12.25;77.58
70839;DHT22;58464;52.298;4.852;2022-11-25T15:05:36;12.17;77.85
70839;DHT22;58464;52.298;4.852;2022-11-25T15:11:00;11.94;79.25
70839;DHT22;58464;52.298;4.852;2022-11-25T15:13:38;11.84;79.78
70839;DHT22;58464;52.298;4.852;2022-11-25T15:16:22;11.84;79.95
70839;DHT22;58464;52.298;4.852;2022-11-25T15:18:55;11.76;80.09
70839;DHT22;58464;52.298;4.852;2022-11-25T15:21:25;11.74;80.41
70839;DHT22;58464;52.298;4.852;2022-11-25T15:23:51;11.56;80.79
70839;DHT22;58464;52.298;4.852;2022-11-25T15:26:25;11.47;81.38
70839;DHT22;58464;52.298;4.852;2022-11-25T15:29:11;11.39;81.61
70839;DHT22;58464;52.298;4.852;2022-11-25T15:31:38;11.31;82.13
70839;DHT22;58464;52.298;4.852;2022-11-25T15:34:06;11.33;82.16
70839;DHT22;58464;52.298;4.852;2022-11-25T15:36:34;11.35;82.40
70839;DHT22;58464;52.298;4.852;2022-11-25T15:41:48;11.10;83.26
70839;DHT22;58464;52.298;4.852;2022-11-25T15:44:23;11.08;83.22
70839;DHT22;58464;52.298;4.852;2022-11-25T15:46:58;11.02;83.46
70839;DHT22;58464;52.298;4.852;2022-11-25T15:49:25;11.02;83.67
70839;DHT22;58464;52.298;4.852;2022-11-25T15:52:07;11.00;84.19
70839;DHT22;58464;52.298;4.852;2022-11-25T15:54:41;10.90;84.27
70839;DHT22;58464;52.298;4.852;2022-11-25T15:57:29;10.82;84.52
70839;DHT22;58464;52.298;4.852;2022-11-25T16:02:36;10.73;84.95
70839;DHT22;58464;52.298;4.852;2022-11-25T16:07:37;10.84;84.57
70839;DHT22;58464;52.298;4.852;2022-11-25T16:10:21;10.75;84.50
70839;DHT22;58464;52.298;4.852;2022-11-25T16:15:51;10.61;85.13
70839;DHT22;58464;52.298;4.852;2022-11-25T16:18:21;10.61;85.37
70839;DHT22;58464;52.298;4.852;2022-11-25T16:20:50;10.59;85.49
70839;DHT22;58464;52.298;4.852;2022-11-25T16:23:16;10.53;85.65
70839;DHT22;58464;52.298;4.852;2022-11-25T16:26:00;10.50;85.76
70839;DHT22;58464;52.298;4.852;2022-11-25T16:28:25;10.42;85.92
70839;DHT22;58464;52.298;4.852;2022-11-25T16:30:51;10.37;86.24
70839;DHT22;58464;52.298;4.852;2022-11-25T16:33:19;10.39;86.23
70839;DHT22;58464;52.298;4.852;2022-11-25T16:35:45;10.37;86.36
70839;DHT22;58464;52.298;4.852;2022-11-25T16:38:10;10.30;86.45
70839;DHT22;58464;52.298;4.852;2022-11-25T16:40:37;10.34;86.34
70839;DHT22;58464;52.298;4.852;2022-11-25T16:43:06;10.33;86.21
70839;DHT22;58464;52.298;4.852;2022-11-25T16:45:38;10.24;86.61
70839;DHT22;58464;52.298;4.852;2022-11-25T16:48:14;10.22;86.74
70839;DHT22;58464;52.298;4.852;2022-11-25T16:50:43;10.23;86.79
70839;DHT22;58464;52.298;4.852;2022-11-25T16:53:09;10.23;86.72
70839;DHT22;58464;52.298;4.852;2022-11-25T16:55:36;10.26;86.48
70839;DHT22;58464;52.298;4.852;2022-11-25T16:58:06;10.19;86.72
70839;DHT22;58464;52.298;4.852;2022-11-25T17:00:32;10.19;86.66
70839;DHT22;58464;52.298;4.852;2022-11-25T17:02:59;10.22;86.68
70839;DHT22;58464;52.298;4.852;2022-11-25T17:05:24;10.22;86.75
70839;DHT22;58464;52.298;4.852;2022-11-25T17:07:50;10.17;86.65
70839;DHT22;58464;52.298;4.852;2022-11-25T17:10:17;10.13;86.74
70839;DHT22;58464;52.298;4.852;2022-11-25T17:12:44;10.12;86.83
70839;DHT22;58464;52.298;4.852;2022-11-25T17:15:19;10.09;87.17
70839;DHT22;58464;52.298;4.852;2022-11-25T17:17:46;10.13;87.02
70839;DHT22;58464;52.298;4.852;2022-11-25T17:20:14;10.12;86.93
70839;DHT22;58464;52.298;4.852;2022-11-25T17:22:40;10.13;86.82
70839;DHT22;58464;52.298;4.852;2022-11-25T17:25:06;10.13;86.67
70839;DHT22;58464;52.298;4.852;2022-11-25T17:27:31;10.06;87.01
70839;DHT22;58464;52.298;4.852;2022-11-25T17:29:59;10.08;86.61
70839;DHT22;58464;52.298;4.852;2022-11-25T17:32:25;10.09;86.75